Time;durP1;ratioP1;P1;durP2;ratioP2;P2;SDS_P1;SDS_P2;PMS_P1;PMS_P2;Temp;Humidity;BMP_temperature;BMP_pressure;BME280_temperature;BME280_humidity;BME280_pressure;Samples;Min_cycle;Max_cycle;Signal;HPM_P1;HPM_P2
2022/12/24 00:02:25;;;;;;;55.20;8.15;;;;;;;8.58;100.00;100251.09;5017954;28;20032;-73
2022/12/24 00:04:51;;;;;;;57.00;7.95;;;;;;;8.55;100.00;100265.47;5016985;28;20033;-74
2022/12/24 00:07:16;;;;;;;59.67;8.23;;;;;;;8.55;100.00;100279.31;5018413;28;20044;-73
2022/12/24 00:09:42;;;;;;;57.45;7.85;;;;;;;8.54;100.00;100263.81;5025570;28;20037;-73
2022/12/24 00:12:07;;;;;;;56.60;8.15;;;;;;;8.55;100.00;100271.00;5018409;28;20487;-73
2022/12/24 00:14:33;;;;;;;62.35;8.52;;;;;;;8.56;100.00;100269.09;5018137;28;20417;-73
2022/12/24 00:16:58;;;;;;;50.08;8.20;;;;;;;8.55;100.00;100271.00;5017784;28;20092;-74
2022/12/24 00:19:24;;;;;;;40.47;7.50;;;;;;;8.55;100.00;100265.47;5023653;28;20663;-73
2022/12/24 00:21:50;;;;;;;46.42;6.43;;;;;;;8.54;100.00;100258.28;5000610;28;20036;-73
2022/12/24 00:24:15;;;;;;;36.88;7.10;;;;;;;8.55;100.00;100262.69;5010860;28;20073;-73
2022/12/24 00:26:41;;;;;;;49.55;7.82;;;;;;;8.55;100.00;100270.19;5016228;28;20030;-73
2022/12/24 00:29:06;;;;;;;59.33;8.23;;;;;;;8.55;100.00;100276.53;5023190;28;20490;-73
2022/12/24 00:31:32;;;;;;;50.58;7.15;;;;;;;8.54;100.00;100269.34;5017786;28;20084;-73
2022/12/24 00:33:57;;;;;;;42.30;6.90;;;;;;;8.55;100.00;100261.88;4996057;28;20037;-73
2022/12/24 00:36:22;;;;;;;53.80;6.85;;;;;;;8.50;100.00;100249.75;5017669;28;20039;-74
2022/12/24 00:38:48;;;;;;;48.75;6.70;;;;;;;8.53;100.00;100251.09;5016579;28;20558;-73
2022/12/24 00:41:23;;;;;;;48.72;7.85;;;;;;;8.52;100.00;100266.03;5017453;28;20107;-73
2022/12/24 00:43:54;;;;;;;51.20;7.20;;;;;;;8.52;100.00;100262.44;5016339;28;20041;-74
2022/12/24 00:46:20;;;;;;;54.05;8.00;;;;;;;8.52;100.00;100277.13;5012546;28;20034;-73
2022/12/24 00:48:46;;;;;;;50.38;7.25;;;;;;;8.52;100.00;100276.28;5026460;28;20030;-73
2022/12/24 00:51:11;;;;;;;55.85;7.55;;;;;;;8.50;100.00;100280.19;5019813;28;20033;-73
2022/12/24 00:53:37;;;;;;;62.20;8.50;;;;;;;8.50;100.00;100276.59;5017410;28;20030;-73
2022/12/24 00:56:02;;;;;;;46.97;6.82;;;;;;;8.50;100.00;100276.59;5017389;28;20073;-74
2022/12/24 00:58:28;;;;;;;54.42;7.70;;;;;;;8.49;100.00;100284.03;5022596;28;20037;-73
2022/12/24 01:00:53;;;;;;;48.70;6.57;;;;;;;8.47;100.00;100280.75;5022811;28;20556;-73
2022/12/24 01:03:19;;;;;;;37.17;7.40;;;;;;;8.49;100.00;100277.69;5017132;28;20038;-73
2022/12/24 01:05:45;;;;;;;54.70;7.70;;;;;;;8.45;100.00;100273.84;5016711;28;20026;-73
2022/12/24 01:08:10;;;;;;;45.30;6.40;;;;;;;8.45;100.00;100271.09;5036098;28;20048;-73
2022/12/24 01:10:36;;;;;;;39.83;6.03;;;;;;;8.45;100.00;100276.63;5019497;28;20033;-73
2022/12/24 01:13:01;;;;;;;46.15;7.22;;;;;;;8.44;100.00;100277.72;5016071;28;20026;-73
2022/12/24 01:15:27;;;;;;;47.72;7.05;;;;;;;8.41;100.00;100279.13;5020446;28;20033;-73
2022/12/24 01:17:52;;;;;;;46.03;7.20;;;;;;;8.42;100.00;100266.13;5025340;28;20099;-73
2022/12/24 01:20:18;;;;;;;49.75;7.22;;;;;;;8.41;100.00;100259.78;5029999;28;20029;-73
2022/12/24 01:22:44;;;;;;;47.28;6.30;;;;;;;8.42;100.00;100250.34;5017205;28;20529;-73
2022/12/24 01:25:09;;;;;;;43.47;7.45;;;;;;;8.41;100.00;100242.31;5002698;28;20034;-74
2022/12/24 01:27:35;;;;;;;47.72;7.20;;;;;;;8.42;100.00;100252.28;5016966;28;20033;-73
2022/12/24 01:30:00;;;;;;;37.83;6.20;;;;;;;8.41;100.00;100250.63;5020241;28;20438;-73
2022/12/24 01:32:26;;;;;;;51.13;7.00;;;;;;;8.42;100.00;100246.75;5015448;28;20030;-73
2022/12/24 01:34:51;;;;;;;37.95;6.28;;;;;;;8.39;100.00;100242.63;5016907;28;20037;-73
2022/12/24 01:37:16;;;;;;;45.30;6.43;;;;;;;8.42;100.00;100241.22;5016655;28;20049;-73
2022/12/24 01:39:42;;;;;;;44.20;6.68;;;;;;;8.41;100.00;100245.06;5016466;28;20037;-73
2022/12/24 01:45:34;;;;;;;42.08;6.38;;;;;;;8.39;100.00;100250.91;5015306;28;20161;-74
2022/12/24 01:47:59;;;;;;;46.17;7.25;;;;;;;8.41;100.00;100250.63;5016239;28;20123;-73
2022/12/24 01:50:25;;;;;;;46.75;7.50;;;;;;;8.40;100.00;100249.78;5015087;28;20029;-73
2022/12/24 01:52:50;;;;;;;35.20;5.53;;;;;;;8.41;100.00;100248.69;5015089;28;20033;-73
2022/12/24 01:55:16;;;;;;;46.53;8.02;;;;;;;8.43;100.00;100262.22;5015227;28;20022;-73
2022/12/24 01:57:44;;;;;;;36.58;6.15;;;;;;;8.45;100.00;100262.78;5015178;28;20025;-73
2022/12/24 02:00:11;;;;;;;41.58;6.28;;;;;;;8.46;100.00;100259.72;5014379;28;20048;-73
2022/12/24 02:02:39;;;;;;;36.55;6.30;;;;;;;8.48;100.00;100262.22;5015868;28;20091;-73
2022/12/24 02:05:14;;;;;;;41.97;6.85;;;;;;;8.49;100.00;100255.53;4998452;28;20057;-73
2022/12/24 02:07:40;;;;;;;45.05;6.38;;;;;;;8.52;100.00;100260.50;4999905;28;20069;-73
2022/12/24 02:10:07;;;;;;;50.45;6.43;;;;;;;8.54;100.00;100258.28;5004215;28;20030;-73
2022/12/24 02:12:34;;;;;;;42.53;5.88;;;;;;;8.57;100.00;100267.97;5014804;28;20599;-73
2022/12/24 02:14:59;;;;;;;40.83;7.47;;;;;;;8.57;100.00;100263.25;5014843;28;20512;-73
2022/12/24 02:17:24;;;;;;;46.80;7.57;;;;;;;8.58;100.00;100264.06;5014261;28;20025;-73
2022/12/24 02:19:53;;;;;;;50.83;6.80;;;;;;;8.59;100.00;100265.75;5016156;28;20108;-73
2022/12/24 02:22:34;;;;;;;51.25;6.43;;;;;;;8.60;100.00;100272.91;5016012;28;20044;-73
2022/12/24 02:25:34;;;;;;;49.45;6.45;;;;;;;8.61;100.00;100280.09;5006992;28;20029;-73
2022/12/24 02:28:12;;;;;;;43.80;6.22;;;;;;;8.63;100.00;100277.88;5000937;28;20044;-73
2022/12/24 02:30:46;;;;;;;47.05;5.93;;;;;;;8.64;100.00;100285.09;5003116;28;20037;-73
2022/12/24 02:33:29;;;;;;;43.47;6.30;;;;;;;8.66;100.00;100300.31;4988356;28;20044;-73
2022/12/24 02:36:23;;;;;;;48.33;6.97;;;;;;;8.68;100.00;100295.28;4998774;28;20619;-73
2022/12/24 02:38:53;;;;;;;49.67;7.95;;;;;;;8.69;100.00;100296.97;5007592;28;20128;-73
2022/12/24 02:41:24;;;;;;;40.28;5.88;;;;;;;8.73;100.00;100299.97;5031949;28;20033;-73
2022/12/24 02:43:50;;;;;;;51.35;6.38;;;;;;;8.75;100.00;100299.66;5014192;28;20552;-73
2022/12/24 02:46:18;;;;;;;50.28;7.07;;;;;;;8.76;100.00;100309.66;5012303;28;20034;-73
2022/12/24 02:48:44;;;;;;;45.28;5.97;;;;;;;8.80;100.00;100313.47;5013270;28;20026;-73
2022/12/24 02:51:10;;;;;;;46.95;6.80;;;;;;;8.79;100.00;100309.91;5001838;28;20040;-73
2022/12/24 02:53:35;;;;;;;40.10;5.68;;;;;;;8.83;100.00;100304.59;5015592;28;20029;-73
2022/12/24 02:56:10;;;;;;;36.72;5.50;;;;;;;8.84;100.00;100322.88;5014298;28;20048;-73
2022/12/24 02:58:48;;;;;;;39.67;6.18;;;;;;;8.87;100.00;100316.78;5015623;28;20543;-73
2022/12/24 03:01:45;;;;;;;40.25;6.45;;;;;;;8.87;100.00;100320.38;5014452;28;20030;-73
2022/12/24 03:04:38;;;;;;;50.67;6.63;;;;;;;8.90;100.00;100316.19;5001459;28;20052;-73
2022/12/24 03:07:22;;;;;;;45.63;6.38;;;;;;;8.92;100.00;100316.75;5014288;28;20034;-73
2022/12/24 03:09:56;;;;;;;48.35;6.63;;;;;;;8.94;100.00;100323.66;5017978;28;20034;-73
2022/12/24 03:12:57;;;;;;;48.35;6.43;;;;;;;8.95;100.00;100327.25;5015499;28;20026;-73
2022/12/24 03:15:23;;;;;;;46.70;5.35;;;;;;;8.97;100.00;100325.03;4992527;28;20065;-74
2022/12/24 03:17:49;;;;;;;37.85;6.07;;;;;;;9.02;100.00;100329.69;4997754;28;20037;-73
2022/12/24 03:20:19;;;;;;;45.38;6.90;;;;;;;9.02;100.00;100333.28;4997779;28;20087;-73
2022/12/24 03:22:44;;;;;;;52.70;6.18;;;;;;;9.03;100.00;100325.81;4998046;28;20045;-73
2022/12/24 03:25:10;;;;;;;36.17;5.35;;;;;;;9.05;100.00;100329.91;5002127;28;20038;-73
2022/12/24 03:27:35;;;;;;;40.58;5.10;;;;;;;9.07;100.00;100330.47;5015369;28;20457;-73
2022/12/24 03:30:02;;;;;;;43.97;5.80;;;;;;;9.08;100.00;100336.81;5001412;28;20042;-73
2022/12/24 03:32:28;;;;;;;36.95;5.10;;;;;;;9.09;100.00;100324.66;5016599;28;20040;-73
2022/12/24 03:34:54;;;;;;;38.80;6.30;;;;;;;9.10;100.00;100327.13;5019176;28;20099;-73
2022/12/24 03:37:19;;;;;;;48.33;6.18;;;;;;;9.09;100.00;100324.66;5009472;28;20050;-74
2022/12/24 03:39:45;;;;;;;42.67;6.25;;;;;;;9.11;100.00;100331.56;5017800;28;20030;-73
2022/12/24 03:42:10;;;;;;;40.25;6.80;;;;;;;9.14;100.00;100321.84;5019018;28;20064;-73
2022/12/24 03:44:35;;;;;;;33.80;5.90;;;;;;;9.13;100.00;100318.22;5018449;28;20037;-73
2022/12/24 03:47:01;;;;;;;34.70;5.15;;;;;;;9.12;100.00;100305.50;5018513;28;20026;-73
2022/12/24 03:49:26;;;;;;;36.58;5.30;;;;;;;9.14;100.00;100299.69;5028468;28;20505;-73
2022/12/24 03:51:52;;;;;;;43.83;6.28;;;;;;;9.15;100.00;100293.00;5038398;28;20091;-73
2022/12/24 03:54:17;;;;;;;33.75;5.43;;;;;;;9.16;100.00;100298.28;5038403;28;20034;-73
2022/12/24 03:56:43;;;;;;;36.15;5.65;;;;;;;9.17;100.00;100304.63;5020514;28;20033;-73
2022/12/24 03:59:08;;;;;;;40.65;5.47;;;;;;;9.18;100.00;100290.47;5037814;28;20041;-73
2022/12/24 04:01:34;;;;;;;36.40;5.80;;;;;;;9.18;100.00;100300.75;5038307;28;20025;-73
2022/12/24 04:03:59;;;;;;;30.40;5.15;;;;;;;9.16;100.00;100300.19;5032313;28;20037;-73
2022/12/24 04:06:25;;;;;;;44.30;6.22;;;;;;;9.17;100.00;100302.69;5018369;28;20030;-72
2022/12/24 04:08:50;;;;;;;22.70;4.80;;;;;;;9.16;100.00;100298.28;5021163;28;20072;-72
2022/12/24 04:11:16;;;;;;;31.10;4.55;;;;;;;9.16;100.00;100295.50;5023209;28;20029;-73
2022/12/24 04:13:41;;;;;;;32.45;5.47;;;;;;;9.18;100.00;100301.56;5018415;28;20056;-73
2022/12/24 04:16:08;;;;;;;26.27;4.55;;;;;;;9.17;100.00;100294.38;5018315;28;20030;-73
2022/12/24 04:18:34;;;;;;;26.38;4.68;;;;;;;9.16;100.00;100297.44;5016624;28;20049;-73
2022/12/24 04:21:00;;;;;;;25.65;4.47;;;;;;;9.18;100.00;100301.56;5017983;28;20033;-73
2022/12/24 04:23:25;;;;;;;21.25;4.10;;;;;;;9.16;100.00;100298.28;5017328;28;20049;-73
2022/12/24 04:25:51;;;;;;;29.15;5.22;;;;;;;9.18;100.00;100290.47;5005656;28;20498;-72
2022/12/24 04:28:16;;;;;;;24.08;4.80;;;;;;;9.18;100.00;100296.03;5018697;28;20025;-73
2022/12/24 04:30:42;;;;;;;26.33;4.40;;;;;;;9.18;100.00;100296.03;5029968;28;20082;-73
2022/12/24 04:33:07;;;;;;;17.77;4.00;;;;;;;9.16;100.00;100295.50;5016903;28;20055;-73
2022/12/24 04:35:33;;;;;;;23.88;3.95;;;;;;;9.16;100.00;100291.88;5017988;28;20029;-73
2022/12/24 04:37:58;;;;;;;20.95;4.38;;;;;;;9.17;100.00;100299.09;5017569;28;20065;-73
2022/12/24 04:40:24;;;;;;;18.98;3.53;;;;;;;9.15;100.00;100296.59;5014530;28;20036;-73
2022/12/24 04:42:50;;;;;;;22.30;4.22;;;;;;;9.16;100.00;100294.66;5036357;28;20041;-73
2022/12/24 04:45:16;;;;;;;22.48;4.20;;;;;;;9.15;100.00;100290.25;5019533;28;20399;-73
2022/12/24 04:47:41;;;;;;;17.00;3.72;;;;;;;9.16;100.00;100291.88;5012790;28;20379;-73
2022/12/24 04:50:07;;;;;;;20.60;4.03;;;;;;;9.12;100.00;100291.66;5023744;28;20037;-73
2022/12/24 04:52:33;;;;;;;14.05;3.50;;;;;;;9.11;100.00;100289.16;5037273;28;20029;-73
2022/12/24 04:54:59;;;;;;;23.95;4.03;;;;;;;9.13;100.00;100281.38;5037380;28;20029;-73
2022/12/24 04:57:24;;;;;;;18.67;4.25;;;;;;;9.14;100.00;100274.75;5021237;28;20494;-73
2022/12/24 04:59:50;;;;;;;20.50;4.18;;;;;;;9.14;100.00;100270.03;5017271;28;20533;-73
2022/12/24 05:02:15;;;;;;;23.27;4.85;;;;;;;9.12;100.00;100276.97;5016973;28;20033;-73
2022/12/24 05:04:40;;;;;;;23.67;3.90;;;;;;;9.13;100.00;100273.91;5017361;28;20088;-73
2022/12/24 05:07:06;;;;;;;24.65;4.10;;;;;;;9.11;100.00;100272.53;5013858;28;20030;-73
2022/12/24 05:09:31;;;;;;;25.33;4.50;;;;;;;9.13;100.00;100275.84;5024485;28;20412;-72
2022/12/24 05:11:57;;;;;;;28.70;4.53;;;;;;;9.13;100.00;100279.44;5031061;28;20025;-73
2022/12/24 05:14:22;;;;;;;26.02;4.63;;;;;;;9.13;100.00;100282.22;5016995;28;20036;-73
2022/12/24 05:16:48;;;;;;;24.05;5.07;;;;;;;9.14;100.00;100286.66;5016656;28;20037;-73
2022/12/24 05:19:13;;;;;;;27.17;4.68;;;;;;;9.15;100.00;100284.69;5015941;28;20030;-73
2022/12/24 05:21:39;;;;;;;30.48;5.20;;;;;;;9.16;100.00;100289.13;5016941;28;20444;-73
2022/12/24 05:26:50;;;;;;;25.80;4.82;;;;;;;9.17;100.00;100283.28;5012009;28;20156;-73
2022/12/24 05:29:16;;;;;;;32.08;4.60;;;;;;;9.18;100.00;100273.03;5005180;28;20033;-73
2022/12/24 05:31:42;;;;;;;23.98;4.82;;;;;;;9.18;100.00;100271.09;5035667;28;20036;-73
2022/12/24 05:34:08;;;;;;;24.13;5.13;;;;;;;9.21;100.00;100277.16;5016870;28;20091;-73
2022/12/24 05:36:33;;;;;;;23.63;4.82;;;;;;;9.21;100.00;100283.53;5015078;28;20041;-73
2022/12/24 05:38:59;;;;;;;28.95;5.20;;;;;;;9.21;100.00;100275.22;5016658;28;20026;-73
2022/12/24 05:41:24;;;;;;;22.58;4.75;;;;;;;9.23;100.00;100269.41;5016739;28;20384;-73
2022/12/24 05:43:50;;;;;;;29.83;5.80;;;;;;;9.24;100.00;100271.03;5015402;28;20032;-73
2022/12/24 05:46:17;;;;;;;26.00;5.32;;;;;;;9.25;100.00;100272.69;5016538;28;20084;-73
2022/12/24 05:48:43;;;;;;;29.77;5.50;;;;;;;9.24;100.00;100265.50;5025021;28;20032;-73
2022/12/24 05:51:09;;;;;;;24.77;5.07;;;;;;;9.24;100.00;100265.50;5019679;28;20030;-73
2022/12/24 05:53:35;;;;;;;26.75;5.05;;;;;;;9.25;100.00;100264.38;5015918;28;20037;-73
2022/12/24 05:56:11;;;;;;;28.55;4.88;;;;;;;9.26;100.00;100264.09;5015367;28;20034;-73
2022/12/24 05:58:37;;;;;;;29.25;5.45;;;;;;;9.27;100.00;100262.16;4999045;28;20091;-73
2022/12/24 06:01:03;;;;;;;27.00;4.72;;;;;;;9.24;100.00;100262.72;5032156;28;20104;-73
2022/12/24 06:03:29;;;;;;;32.80;4.93;;;;;;;9.26;100.00;100258.56;5023403;28;20128;-73
2022/12/24 06:06:04;;;;;;;28.00;5.10;;;;;;;9.25;100.00;100245.81;5016233;28;20037;-73
2022/12/24 06:08:30;;;;;;;26.13;5.28;;;;;;;9.27;100.00;100249.13;5015217;28;20048;-73
2022/12/24 06:11:00;;;;;;;25.10;5.80;;;;;;;9.27;100.00;100248.28;5005289;28;20405;-73
2022/12/24 06:13:26;;;;;;;18.27;4.10;;;;;;;9.27;100.00;100260.19;5015974;28;20026;-73
2022/12/24 06:15:55;;;;;;;27.17;4.85;;;;;;;9.26;100.00;100253.00;5016624;28;20492;-73
2022/12/24 06:18:21;;;;;;;28.67;5.20;;;;;;;9.27;100.00;100249.13;5022446;28;20038;-73
2022/12/24 06:20:53;;;;;;;28.02;4.90;;;;;;;9.27;100.00;100248.28;5025964;28;20126;-73
2022/12/24 06:23:19;;;;;;;19.65;4.15;;;;;;;9.27;100.00;100267.69;5020602;28;20034;-73
2022/12/24 06:25:44;;;;;;;16.13;3.80;;;;;;;9.26;100.00;100260.50;5002872;28;20037;-73
2022/12/24 06:28:10;;;;;;;25.80;3.90;;;;;;;9.29;100.00;100262.69;5014931;28;20379;-73
2022/12/24 06:30:35;;;;;;;29.02;4.93;;;;;;;9.27;100.00;100257.44;5024452;28;20037;-73
2022/12/24 06:33:01;;;;;;;30.23;4.20;;;;;;;9.28;100.00;100267.41;5014740;28;20034;-73
2022/12/24 06:35:26;;;;;;;21.52;3.67;;;;;;;9.27;100.00;100256.59;5015827;28;20037;-73
2022/12/24 06:37:52;;;;;;;21.33;3.83;;;;;;;9.28;100.00;100261.88;5015492;28;20068;-73
2022/12/24 06:40:17;;;;;;;20.65;3.60;;;;;;;9.27;100.00;100251.88;5015681;28;20698;-73
2022/12/24 06:42:43;;;;;;;26.80;3.78;;;;;;;9.28;100.00;100255.50;5014908;28;20026;-73
2022/12/24 06:45:09;;;;;;;26.90;3.97;;;;;;;9.28;100.00;100261.88;5015526;28;20037;-73
2022/12/24 06:47:34;;;;;;;24.10;3.20;;;;;;;9.29;100.00;100255.19;5031958;28;20099;-73
2022/12/24 06:50:00;;;;;;;35.75;4.40;;;;;;;9.27;100.00;100254.66;5021215;28;20035;-73
2022/12/24 06:52:25;;;;;;;27.23;3.90;;;;;;;9.26;100.00;100257.72;5015732;28;20040;-73
2022/12/24 06:54:50;;;;;;;22.85;3.17;;;;;;;9.27;100.00;100262.16;5014620;28;20026;-73
2022/12/24 06:57:16;;;;;;;22.63;3.90;;;;;;;9.27;100.00;100268.50;5014514;28;20498;-73
2022/12/24 06:59:41;;;;;;;23.27;3.80;;;;;;;9.27;100.00;100267.69;5015556;28;20030;-73
2022/12/24 07:02:08;;;;;;;25.52;4.15;;;;;;;9.27;100.00;100265.75;5015101;28;20037;-73
2022/12/24 07:04:33;;;;;;;31.38;3.63;;;;;;;9.27;100.00;100267.69;5017139;28;20061;-73
2022/12/24 07:06:59;;;;;;;19.90;2.70;;;;;;;9.28;100.00;100263.81;5019476;28;20394;-73
2022/12/24 07:09:24;;;;;;;20.42;2.72;;;;;;;9.27;100.00;100265.75;5023732;28;20056;-73
2022/12/24 07:11:50;;;;;;;31.73;3.70;;;;;;;9.28;100.00;100263.81;5034238;28;20026;-73
2022/12/24 07:14:15;;;;;;;22.20;3.40;;;;;;;9.28;100.00;100261.03;5019285;28;20034;-73
2022/12/24 07:16:41;;;;;;;28.70;2.70;;;;;;;9.27;100.00;100267.69;5019042;28;20030;-73
2022/12/24 07:19:06;;;;;;;21.10;2.60;;;;;;;9.26;100.00;100266.03;5019418;28;20033;-73
2022/12/24 07:21:32;;;;;;;22.05;2.92;;;;;;;9.27;100.00;100268.50;5019254;28;20021;-73
2022/12/24 07:23:57;;;;;;;17.98;2.72;;;;;;;9.25;100.00;100273.53;5014387;28;20084;-73
2022/12/24 07:26:23;;;;;;;27.58;3.72;;;;;;;9.26;100.00;100274.34;5022086;28;20030;-73
2022/12/24 07:28:48;;;;;;;21.67;3.55;;;;;;;9.25;100.00;100286.53;5021133;28;20034;-73
2022/12/24 07:31:14;;;;;;;28.25;3.25;;;;;;;9.26;100.00;100280.72;5026294;28;20037;-73
2022/12/24 07:33:39;;;;;;;23.35;3.00;;;;;;;9.24;100.00;100284.91;5016565;28;20033;-73
2022/12/24 07:36:06;;;;;;;23.90;2.80;;;;;;;9.24;100.00;100282.94;5019016;28;20030;-73
2022/12/24 07:38:32;;;;;;;25.80;3.80;;;;;;;9.23;100.00;100286.03;5001101;28;20058;-73
2022/12/24 07:40:57;;;;;;;25.75;3.42;;;;;;;9.23;100.00;100295.16;5018792;28;20430;-73
2022/12/24 07:43:23;;;;;;;21.45;2.78;;;;;;;9.25;100.00;100300.41;5017529;28;20038;-73
2022/12/24 07:45:49;;;;;;;21.20;3.22;;;;;;;9.24;100.00;100298.75;5017718;28;20137;-73
2022/12/24 07:48:14;;;;;;;23.05;3.75;;;;;;;9.23;100.00;100308.19;5017383;28;20033;-73
2022/12/24 07:50:40;;;;;;;17.40;2.42;;;;;;;9.22;100.00;100309.28;5019903;28;20041;-73
2022/12/24 07:53:06;;;;;;;26.85;3.75;;;;;;;9.21;100.00;100300.16;5018599;28;20084;-73
2022/12/24 07:55:31;;;;;;;18.20;2.70;;;;;;;9.20;100.00;100308.78;5018911;28;20430;-73
2022/12/24 07:57:57;;;;;;;19.58;2.88;;;;;;;9.19;100.00;100302.38;5018784;28;20037;-73
2022/12/24 08:00:22;;;;;;;22.45;3.00;;;;;;;9.21;100.00;100304.88;5024426;28;20038;-73
2022/12/24 08:02:48;;;;;;;19.45;2.97;;;;;;;9.20;100.00;100294.91;5018210;28;20038;-72
2022/12/24 08:05:13;;;;;;;22.10;2.88;;;;;;;9.21;100.00;100300.16;5030367;28;20029;-73
2022/12/24 08:07:39;;;;;;;34.47;4.30;;;;;;;9.23;100.00;100308.19;5019423;28;20041;-73
2022/12/24 08:10:05;;;;;;;18.50;2.83;;;;;;;9.20;100.00;100303.25;5026352;28;20030;-72
2022/12/24 08:12:30;;;;;;;23.27;3.15;;;;;;;9.22;100.00;100307.38;5025051;28;20037;-73
2022/12/24 08:14:56;;;;;;;19.95;2.75;;;;;;;9.23;100.00;100319.28;5024870;28;20041;-73
2022/12/24 08:17:21;;;;;;;21.38;2.63;;;;;;;9.24;100.00;100307.88;5017858;28;20611;-73
2022/12/24 08:19:47;;;;;;;19.33;3.00;;;;;;;9.24;100.00;100305.13;5018390;28;20682;-72
2022/12/24 08:22:12;;;;;;;17.27;3.08;;;;;;;9.24;100.00;100305.13;5018331;28;20034;-73
2022/12/24 08:24:37;;;;;;;24.45;3.38;;;;;;;9.25;100.00;100314.25;5007925;28;20035;-73
2022/12/24 08:27:03;;;;;;;18.83;2.90;;;;;;;9.27;100.00;100309.25;5015348;28;20026;-73
2022/12/24 08:29:28;;;;;;;16.50;2.55;;;;;;;9.29;100.00;100315.34;5020374;28;20536;-73
2022/12/24 08:31:54;;;;;;;16.85;2.45;;;;;;;9.31;100.00;100318.66;5018450;28;20026;-73
2022/12/24 08:34:19;;;;;;;19.38;3.05;;;;;;;9.31;100.00;100322.25;5018138;28;20042;-73
2022/12/24 08:36:45;;;;;;;16.55;2.80;;;;;;;9.32;100.00;100321.13;5017602;28;20046;-72
2022/12/24 08:39:10;;;;;;;11.55;2.15;;;;;;;9.31;100.00;100321.44;5016693;28;20029;-73
2022/12/24 08:41:36;;;;;;;11.18;1.90;;;;;;;9.33;100.00;100319.16;5001272;28;20030;-73
2022/12/24 08:44:01;;;;;;;10.57;1.88;;;;;;;9.34;100.00;100320.84;4996698;28;20510;-73
2022/12/24 08:46:27;;;;;;;11.90;1.90;;;;;;;9.36;100.00;100324.13;5013225;28;20057;-73
2022/12/24 08:48:52;;;;;;;12.77;2.40;;;;;;;9.37;100.00;100323.84;5017680;28;20034;-73
2022/12/24 08:51:18;;;;;;;9.38;1.92;;;;;;;9.39;100.00;100329.13;5029379;28;20453;-73
2022/12/24 08:53:44;;;;;;;12.20;2.63;;;;;;;9.39;100.00;100327.16;5008800;28;20529;-73
2022/12/24 08:56:09;;;;;;;10.88;1.73;;;;;;;9.42;100.00;100333.22;5017376;28;20041;-73
2022/12/24 08:58:35;;;;;;;14.05;2.17;;;;;;;9.44;100.00;100339.31;5016222;28;20033;-73
2022/12/24 09:01:01;;;;;;;15.20;2.30;;;;;;;9.45;100.00;100339.03;5026753;28;20034;-73
2022/12/24 09:03:26;;;;;;;11.40;1.92;;;;;;;9.48;100.00;100332.09;5017317;28;20033;-73
2022/12/24 09:05:52;;;;;;;10.27;1.90;;;;;;;9.48;100.00;100341.22;5030334;28;20030;-73
2022/12/24 09:08:19;;;;;;;10.50;1.80;;;;;;;9.51;100.00;100345.38;5015977;28;20037;-73
2022/12/24 09:10:44;;;;;;;11.52;1.63;;;;;;;9.53;100.00;100343.13;5024349;28;20029;-73
2022/12/24 09:13:10;;;;;;;6.72;1.73;;;;;;;9.53;100.00;100343.97;5016205;28;20029;-73
2022/12/24 09:15:35;;;;;;;8.55;2.35;;;;;;;9.56;100.00;100348.09;5017251;28;20030;-73
2022/12/24 09:18:01;;;;;;;11.35;1.70;;;;;;;9.57;100.00;100352.50;5016924;28;20041;-73
2022/12/24 09:20:26;;;;;;;11.18;1.85;;;;;;;9.58;100.00;100352.22;5016817;28;20036;-73
2022/12/24 09:22:52;;;;;;;14.02;2.20;;;;;;;9.60;100.00;100354.69;5017003;28;20490;-73
2022/12/24 09:25:18;;;;;;;9.40;2.20;;;;;;;9.61;100.00;100359.97;5003935;28;20545;-73
2022/12/24 09:27:43;;;;;;;12.07;2.92;;;;;;;9.65;100.00;100348.28;5017367;28;20033;-73
2022/12/24 09:30:09;;;;;;;10.40;1.85;;;;;;;9.65;100.00;100360.19;5018110;28;20042;-73
2022/12/24 09:32:34;;;;;;;15.70;2.75;;;;;;;9.70;100.00;100365.72;5015670;28;20060;-73
2022/12/24 09:35:00;;;;;;;14.63;2.63;;;;;;;9.70;100.00;100356.56;5028796;28;20091;-73
2022/12/24 09:37:25;;;;;;;19.08;3.58;;;;;;;9.73;100.00;100354.03;5017054;28;20050;-73
2022/12/24 09:39:51;;;;;;;13.60;2.80;;;;;;;9.75;100.00;100359.25;5018004;28;20038;-73
2022/12/24 09:42:41;;;;;;;14.38;2.60;;;;;;;9.78;100.00;100358.72;5016754;28;20044;-73
2022/12/24 09:45:17;;;;;;;15.63;2.67;;;;;;;9.81;100.00;100341.47;5016189;28;20530;-73
2022/12/24 09:47:51;;;;;;;28.80;3.63;;;;;;;9.82;100.00;100351.44;5030251;28;20029;-73
2022/12/24 09:50:38;;;;;;;17.20;2.80;;;;;;;9.84;100.00;100358.34;4989793;28;20068;-73
2022/12/24 09:53:06;;;;;;;20.02;3.15;;;;;;;9.88;100.00;100364.13;5017975;28;20041;-73
2022/12/24 09:55:42;;;;;;;13.40;2.65;;;;;;;9.86;100.00;100352.50;5016340;28;20522;-73
2022/12/24 09:58:14;;;;;;;24.83;3.10;;;;;;;9.89;100.00;100354.72;4998874;28;20037;-73
2022/12/24 10:00:40;;;;;;;;;;;;;;;9.93;100.00;100366.84;5003694;28;20124;-73
2022/12/24 10:03:14;;;;;;;21.27;3.10;;;;;;;9.94;100.00;100367.69;5011165;28;20011;-73
2022/12/24 10:05:47;;;;;;;24.20;4.22;;;;;;;9.97;100.00;100367.94;5018372;28;20037;-73
2022/12/24 10:08:31;;;;;;;;;;;;;;;10.00;100.00;100374.81;5000064;28;20394;-73
2022/12/24 10:11:01;;;;;;;21.08;2.75;;;;;;;10.01;100.00;100380.09;5021899;28;19936;-73
2022/12/24 10:13:36;;;;;;;25.48;3.78;;;;;;;10.04;100.00;100373.94;5011846;28;20503;-73
2022/12/24 10:16:15;;;;;;;22.20;3.65;;;;;;;10.06;100.00;100368.94;5011369;28;20072;-73
2022/12/24 10:18:58;;;;;;;25.85;3.65;;;;;;;10.09;100.00;100373.09;5019371;28;20058;-73
2022/12/24 10:21:39;;;;;;;18.92;3.78;;;;;;;10.12;100.00;100363.34;5014861;28;20037;-73
2022/12/24 10:24:18;;;;;;;21.98;3.55;;;;;;;10.14;100.00;100367.47;4998492;28;20089;-73
2022/12/24 10:26:56;;;;;;;34.00;4.53;;;;;;;10.13;100.00;100360.25;5025453;28;20084;-73
2022/12/24 10:29:33;;;;;;;21.95;3.88;;;;;;;10.20;100.00;100359.94;5008935;28;20040;-73
2022/12/24 10:32:10;;;;;;;27.33;3.80;;;;;;;10.22;100.00;100365.97;4998901;28;20715;-73
2022/12/24 10:34:42;;;;;;;32.85;4.10;;;;;;;10.22;100.00;100355.72;5024099;28;20088;-73
2022/12/24 10:37:23;;;;;;;25.73;3.50;;;;;;;10.25;100.00;100349.59;4986080;28;20053;-73
2022/12/24 10:39:49;;;;;;;29.13;3.28;;;;;;;10.29;100.00;100341.53;5016388;28;20048;-73
2022/12/24 10:42:14;;;;;;;21.48;3.28;;;;;;;10.29;100.00;100349.84;5009017;28;20029;-73
2022/12/24 10:44:40;;;;;;;34.30;3.88;;;;;;;10.30;100.00;100348.72;5015788;28;20041;-73
2022/12/24 10:47:06;;;;;;;25.48;3.78;;;;;;;10.33;100.00;100345.34;5014520;28;20030;-73
2022/12/24 10:49:38;;;;;;;23.17;3.45;;;;;;;10.34;100.00;100344.25;5014454;28;20025;-73
2022/12/24 10:52:14;;;;;;;36.63;4.60;;;;;;;10.35;100.00;100345.06;5006105;28;20046;-73
2022/12/24 10:55:03;;;;;;;23.40;3.13;;;;;;;10.36;100.00;100346.69;5014423;28;20071;-73
2022/12/24 10:57:29;;;;;;;30.85;3.25;;;;;;;10.36;100.00;100347.53;5015707;28;20061;-73
2022/12/24 10:59:54;;;;;;;25.58;3.53;;;;;;;10.40;100.00;100347.78;5017455;28;20029;-73
2022/12/24 11:02:37;;;;;;;29.27;3.38;;;;;;;10.41;100.00;100350.22;5033625;28;20705;-73
2022/12/24 11:05:05;;;;;;;29.73;2.92;;;;;;;10.43;100.00;100353.56;5005759;28;20450;-73
2022/12/24 11:07:30;;;;;;;22.65;3.65;;;;;;;10.44;100.00;100349.63;5015457;28;20030;-73
2022/12/24 11:10:20;;;;;;;17.27;2.95;;;;;;;10.45;100.00;100342.16;5014348;28;20066;-73
2022/12/24 11:12:46;;;;;;;16.35;2.92;;;;;;;10.48;100.00;100342.38;5006768;28;20044;-73
2022/12/24 11:15:16;;;;;;;25.48;3.72;;;;;;;10.49;100.00;100335.69;5014210;28;20082;-74
2022/12/24 11:17:41;;;;;;;22.42;4.25;;;;;;;10.52;100.00;100335.09;5023872;28;20051;-73
2022/12/24 11:20:19;;;;;;;23.38;3.60;;;;;;;10.55;100.00;100327.31;5019912;28;20514;-73
2022/12/24 11:22:47;;;;;;;27.67;3.20;;;;;;;10.54;100.00;100339.53;5013959;28;20030;-73
2022/12/24 11:25:19;;;;;;;28.35;3.45;;;;;;;10.57;100.00;100342.53;4984445;28;20034;-73
2022/12/24 11:27:49;;;;;;;24.95;3.78;;;;;;;10.59;100.00;100353.38;5014285;28;20033;-73